Time;durP1;ratioP1;P1;durP2;ratioP2;P2;SDS_P1;SDS_P2;PMS_P1;PMS_P2;Temp;Humidity;BMP_temperature;BMP_pressure;BME280_temperature;BME280_humidity;BME280_pressure;Samples;Min_cycle;Max_cycle;Signal;HPM_P1;HPM_P2
2023/01/03 00:01:44;;;;;;;;;;;;;;;26.01;40.65;95249.44;4970161;28;9119;-71
2023/01/03 00:04:14;;;;;;;;;;;;;;;26.02;40.27;95248.94;4971798;28;7643;-72
2023/01/03 00:06:44;;;;;;;;;;;;;;;26.04;40.75;95251.94;4968564;28;9383;-71
2023/01/03 00:09:18;;;;;;;;;;;;;;;26.02;40.89;95246.19;4984783;28;9040;-71
2023/01/03 00:14:52;;;;;;;;;;;;;;;26.02;40.63;95242.66;4929218;28;7265;-71
2023/01/03 00:17:49;;;;;;;;;;;;;;;26.03;40.20;95239.41;4931226;29;7566;-71
2023/01/03 00:20:25;;;;;;;;;;;;;;;26.04;41.12;95240.16;4916339;29;8903;-71
2023/01/03 00:23:01;;;;;;;;;;;;;;;26.03;40.49;95235.91;4917883;29;7695;-71
2023/01/03 00:25:28;;;;;;;;;;;;;;;25.99;41.48;95240.91;4923980;29;7919;-71
2023/01/03 00:27:57;;;;;;;;;;;;;;;26.00;41.28;95242.41;4902802;29;9210;-71
2023/01/03 00:30:24;;;;;;;;;;;;;;;26.01;40.33;95241.91;4927734;29;7116;-71
2023/01/03 00:32:50;;;;;;;;;;;;;;;26.02;40.53;95246.19;4911928;29;7050;-71
2023/01/03 00:35:17;;;;;;;;;;;;;;;26.02;41.06;95245.41;4900035;29;9102;-71
2023/01/03 00:37:43;;;;;;;;;;;;;;;26.04;41.31;95240.16;4910045;29;7869;-71
2023/01/03 00:40:10;;;;;;;;;;;;;;;26.01;40.77;95233.63;4927745;29;8759;-71
2023/01/03 00:43:27;;;;;;;;;;;;;;;26.01;40.53;95244.66;4909932;29;7102;-72
2023/01/03 00:45:25;;;;;;;;;;;;;;;26.01;40.97;95235.66;4926697;29;7514;-72
2023/01/03 00:47:53;;;;;;;;;;;;;;;26.00;40.85;95226.63;4927433;29;9586;-72
2023/01/03 00:50:21;;;;;;;;;;;;;;;26.04;41.27;95226.38;4935410;28;9717;-72
2023/01/03 00:52:47;;;;;;;;;;;;;;;26.08;40.90;95235.16;4966120;28;7276;-71
2023/01/03 00:55:13;;;;;;;;;;;;;;;26.08;41.11;95230.44;4966236;28;7361;-72
2023/01/03 00:57:39;;;;;;;;;;;;;;;26.09;40.30;95233.97;4959844;28;6998;-71
2023/01/03 01:00:07;;;;;;;;;;;;;;;26.10;40.96;95236.22;4984312;28;9046;-71
2023/01/03 01:02:33;;;;;;;;;;;;;;;26.09;40.95;95240.22;4975888;28;9109;-71
2023/01/03 01:05:00;;;;;;;;;;;;;;;26.09;40.24;95236.72;4973645;28;7026;-71
2023/01/03 01:07:26;;;;;;;;;;;;;;;26.11;40.19;95236.97;4968791;28;7018;-71
2023/01/03 01:09:52;;;;;;;;;;;;;;;26.10;40.16;95241.72;4984018;28;7035;-71
2023/01/03 01:12:18;;;;;;;;;;;;;;;26.09;40.35;95245.75;4963405;28;9305;-71
2023/01/03 01:14:44;;;;;;;;;;;;;;;26.09;41.04;95245.75;4964301;28;7294;-71
2023/01/03 01:17:10;;;;;;;;;;;;;;;26.09;41.12;95245.75;4965318;28;7381;-71
2023/01/03 01:19:43;;;;;;;;;;;;;;;26.08;40.29;95235.97;4963452;28;8629;-71
2023/01/03 01:22:14;;;;;;;;;;;;;;;26.08;40.48;95235.97;4968093;28;9037;-71
2023/01/03 01:24:40;;;;;;;;;;;;;;;26.07;40.82;95234.44;4980086;28;9329;-71
2023/01/03 01:27:09;;;;;;;;;;;;;;;26.09;40.80;95233.97;4966326;28;9039;-71
2023/01/03 01:30:12;;;;;;;;;;;;;;;26.08;41.20;95232.41;4967031;28;9117;-71
2023/01/03 01:33:24;;;;;;;;;;;;;;;26.06;40.81;95224.63;4901594;29;7750;-71
2023/01/03 01:35:51;;;;;;;;;;;;;;;26.06;40.58;95235.66;4847549;29;7289;-71
2023/01/03 01:38:18;;;;;;;;;;;;;;;26.06;40.47;95237.66;4840740;29;7056;-72
2023/01/03 01:40:57;;;;;;;;;;;;;;;26.07;40.34;95242.72;4835712;29;8950;-71
2023/01/03 01:46:48;;;;;;;;;;;;;;;26.09;40.56;95245.00;4845298;29;7463;-72
2023/01/03 01:49:25;;;;;;;;;;;;;;;26.08;40.57;95243.44;4848305;29;9080;-71
2023/01/03 01:51:51;;;;;;;;;;;;;;;26.06;40.21;95252.22;4842038;29;7187;-71
2023/01/03 01:54:18;;;;;;;;;;;;;;;26.06;40.82;95249.44;4846215;29;7336;-71
2023/01/03 01:56:52;;;;;;;;;;;;;;;26.07;40.55;95255.72;4839619;29;7031;-71
2023/01/03 01:59:18;;;;;;;;;;;;;;;26.05;40.92;95241.69;4858504;29;7672;-71
2023/01/03 02:01:48;;;;;;;;;;;;;;;26.08;40.76;95246.19;4848456;29;7019;-71
2023/01/03 02:04:30;;;;;;;;;;;;;;;26.07;40.43;95241.94;4840407;29;6862;-72
2023/01/03 02:06:57;;;;;;;;;;;;;;;26.07;40.70;95250.97;4873492;29;7044;-71
2023/01/03 02:09:25;;;;;;;;;;;;;;;26.07;41.05;95237.19;4896342;29;7073;-71
2023/01/03 02:14:55;;;;;;;;;;;;;;;26.06;41.13;95232.16;4966495;28;9250;-71
2023/01/03 02:17:42;;;;;;;;;;;;;;;26.05;41.25;95239.69;4971737;28;7128;-71
2023/01/03 02:20:52;;;;;;;;;;;;;;;26.06;40.33;95235.66;4958543;28;7713;-72
2023/01/03 02:23:36;;;;;;;;;;;;;;;26.06;40.55;95240.41;4890888;29;8462;-72
2023/01/03 02:26:18;;;;;;;;;;;;;;;25.99;40.63;95232.63;4894512;29;7531;-71
2023/01/03 02:29:03;;;;;;;;;;;;;;;25.96;40.76;95226.09;4906972;29;7249;-71
2023/01/03 02:31:44;;;;;;;;;;;;;;;25.96;41.18;95226.09;4886193;29;7098;-71
2023/01/03 02:34:25;;;;;;;;;;;;;;;25.96;41.24;95233.59;4893809;29;7637;-72
2023/01/03 02:37:01;;;;;;;;;;;;;;;25.97;40.63;95230.34;4903694;29;9315;-71
2023/01/03 02:39:54;;;;;;;;;;;;;;;25.97;40.75;95227.59;4907575;29;6984;-72
2023/01/03 02:42:56;;;;;;;;;;;;;;;25.94;41.36;95220.34;4838082;29;7035;-71
2023/01/03 02:45:41;;;;;;;;;;;;;;;25.93;41.57;95220.81;4837516;29;7142;-72
2023/01/03 02:48:13;;;;;;;;;;;;;;;25.96;41.32;95217.06;4818184;29;9587;-72
2023/01/03 02:50:52;;;;;;;;;;;;;;;25.98;40.80;95200.78;4834221;29;8720;-71
2023/01/03 02:53:30;;;;;;;;;;;;;;;25.98;40.98;95196.03;4835902;29;9202;-71
2023/01/03 02:56:06;;;;;;;;;;;;;;;25.97;41.28;95200.03;4841928;29;7512;-71
2023/01/03 02:58:37;;;;;;;;;;;;;;;25.98;41.23;95198.78;4837067;29;7484;-72
2023/01/03 03:01:22;;;;;;;;;;;;;;;25.98;40.30;95209.06;4878153;29;7599;-72
2023/01/03 03:04:10;;;;;;;;;;;;;;;25.97;41.07;95204.78;4894572;29;9174;-71
2023/01/03 03:06:52;;;;;;;;;;;;;;;25.99;41.00;95202.31;4878196;29;7863;-71
2023/01/03 03:09:20;;;;;;;;;;;;;;;25.99;40.67;95210.59;4891833;29;7298;-71
2023/01/03 03:15:04;;;;;;;;;;;;;;;25.99;40.59;95214.06;4897702;29;7206;-72
2023/01/03 03:18:05;;;;;;;;;;;;;;;25.98;41.10;95212.59;4881921;29;7425;-71
2023/01/03 03:26:39;;;;;;;;;;;;;;;25.91;41.32;95213.03;4968793;28;7031;-72
2023/01/03 03:29:22;;;;;;;;;;;;;;;25.90;40.97;95219.06;4987636;28;7302;-71
2023/01/03 03:32:01;;;;;;;;;;;;;;;25.90;41.47;95217.03;4963664;28;8738;-71
2023/01/03 03:34:45;;;;;;;;;;;;;;;25.91;41.63;95213.03;4988133;28;9519;-71
2023/01/03 03:37:17;;;;;;;;;;;;;;;25.92;41.19;95208.28;4962479;28;7121;-72
2023/01/03 03:46:09;;;;;;;;;;;;;;;25.94;41.28;95216.81;4973856;28;7878;-72
2023/01/03 03:52:06;;;;;;;;;;;;;;;25.92;40.60;95209.03;4877350;29;7761;-71
2023/01/03 03:54:37;;;;;;;;;;;;;;;25.95;40.55;95212.78;4873774;29;7278;-72
2023/01/03 03:57:17;;;;;;;;;;;;;;;25.92;41.51;95214.56;4873854;29;7083;-72
2023/01/03 03:59:48;;;;;;;;;;;;;;;25.93;41.20;95207.78;4871890;29;7047;-72
2023/01/03 04:02:18;;;;;;;;;;;;;;;25.93;41.27;95213.28;4858047;29;7236;-72
2023/01/03 04:04:52;;;;;;;;;;;;;;;25.91;41.44;95207.53;4858814;29;9024;-72
2023/01/03 04:07:18;;;;;;;;;;;;;;;25.86;40.77;95205.47;4870239;29;9608;-71
2023/01/03 04:09:44;;;;;;;;;;;;;;;25.89;41.00;95212.78;4863070;29;7121;-72
2023/01/03 04:12:13;;;;;;;;;;;;;;;25.90;40.74;95208.75;4865249;29;7286;-72
2023/01/03 04:14:42;;;;;;;;;;;;;;;25.88;41.10;95213.28;4878894;29;7825;-72
2023/01/03 04:17:25;;;;;;;;;;;;;;;25.89;41.04;95215.53;4877946;29;9895;-72
2023/01/03 04:20:34;;;;;;;;;;;;;;;25.89;41.56;95215.53;4879478;29;7029;-71
2023/01/03 04:23:02;;;;;;;;;;;;;;;25.87;41.31;95211.75;4879303;29;8846;-71
2023/01/03 04:25:39;;;;;;;;;;;;;;;25.88;41.56;95211.25;4881209;29;9216;-71
2023/01/03 04:28:11;;;;;;;;;;;;;;;25.88;41.71;95202.25;4925776;28;7035;-72
2023/01/03 04:30:38;;;;;;;;;;;;;;;25.81;41.70;95205.47;4983595;28;7110;-72
2023/01/03 04:33:11;;;;;;;;;;;;;;;25.80;41.07;95210.22;4988746;28;7335;-72
2023/01/03 04:35:53;;;;;;;;;;;;;;;25.78;41.94;95198.94;4966969;28;8961;-72
2023/01/03 04:38:37;;;;;;;;;;;;;;;25.78;41.70;95198.94;4966291;28;7209;-72
2023/01/03 04:41:04;;;;;;;;;;;;;;;25.80;41.51;95210.22;4985157;28;9074;-72
2023/01/03 04:44:03;;;;;;;;;;;;;;;25.83;41.83;95209.25;4974965;28;7083;-72
2023/01/03 04:46:36;;;;;;;;;;;;;;;25.82;40.87;95207.72;4947107;28;7384;-71
2023/01/03 04:49:16;;;;;;;;;;;;;;;25.82;41.38;95215.22;4926134;28;7027;-72
2023/01/03 04:51:51;;;;;;;;;;;;;;;25.81;41.50;95205.47;4934754;28;7556;-72
2023/01/03 04:54:21;;;;;;;;;;;;;;;25.80;40.98;95210.22;4932607;28;9513;-72
2023/01/03 04:56:55;;;;;;;;;;;;;;;25.77;41.12;95210.47;4929683;28;7140;-72
2023/01/03 04:59:21;;;;;;;;;;;;;;;25.79;41.44;95217.00;4945713;28;9746;-72
2023/01/03 05:02:09;;;;;;;;;;;;;;;25.79;40.91;95211.47;4936151;28;7591;-72
2023/01/03 05:05:21;;;;;;;;;;;;;;;25.81;41.02;95217.25;4933514;28;9502;-72
2023/01/03 05:07:47;;;;;;;;;;;;;;;25.82;41.14;95213.22;4877556;29;7409;-72
2023/01/03 05:10:12;;;;;;;;;;;;;;;25.83;41.03;95223.03;4876232;29;8954;-71
2023/01/03 05:12:38;;;;;;;;;;;;;;;25.85;41.86;95217.78;4871884;29;8296;-71
2023/01/03 05:15:05;;;;;;;;;;;;;;;25.81;41.92;95220.00;4894253;29;7293;-70
2023/01/03 05:17:31;;;;;;;;;;;;;;;25.82;41.34;95221.50;4865491;29;9020;-70
2023/01/03 05:25:50;;;;;;;;;;;;;;;25.83;41.42;95236.81;4912317;29;7537;-70
2023/01/03 05:28:25;;;;;;;;;;;;;;;25.84;41.03;95234.78;4910775;29;8712;-71
2023/01/03 05:30:51;;;;;;;;;;;;;;;25.83;41.50;95245.06;4907949;29;7026;-70
2023/01/03 05:33:17;;;;;;;;;;;;;;;25.81;41.63;95230.28;4911989;29;8925;-70
2023/01/03 05:35:46;;;;;;;;;;;;;;;25.84;41.12;95240.28;4907691;29;9006;-71
2023/01/03 05:38:13;;;;;;;;;;;;;;;25.85;40.98;95231.56;4894031;29;7131;-70
2023/01/03 05:40:40;;;;;;;;;;;;;;;25.85;41.44;95230.78;4900142;29;7079;-71
2023/01/03 05:43:06;;;;;;;;;;;;;;;25.83;42.35;95239.56;4893091;29;8973;-71
2023/01/03 05:45:37;;;;;;;;;;;;;;;25.85;41.86;95247.31;4977418;28;9015;-72
2023/01/03 05:48:07;;;;;;;;;;;;;;;25.83;41.73;95247.81;4964532;28;7050;-72
2023/01/03 05:50:40;;;;;;;;;;;;;;;25.83;41.31;95253.34;4973593;28;9436;-71
2023/01/03 05:53:19;;;;;;;;;;;;;;;25.84;42.17;95252.06;4970939;28;7049;-71
2023/01/03 05:56:04;;;;;;;;;;;;;;;25.82;42.68;95260.09;4968595;28;9713;-72
2023/01/03 05:58:36;;;;;;;;;;;;;;;25.81;41.77;95266.84;4972803;28;7122;-72
2023/01/03 06:01:12;;;;;;;;;;;;;;;25.82;42.13;95262.84;4982159;28;7017;-72
2023/01/03 06:03:42;;;;;;;;;;;;;;;25.82;41.61;95259.31;4970807;28;7065;-71
2023/01/03 06:06:14;;;;;;;;;;;;;;;25.83;42.12;95266.34;4971833;28;7659;-71
2023/01/03 06:08:40;;;;;;;;;;;;;;;25.85;41.88;95264.63;4972901;28;7200;-72
2023/01/03 06:11:13;;;;;;;;;;;;;;;25.85;42.20;95263.84;4968012;28;9007;-71
2023/01/03 06:13:40;;;;;;;;;;;;;;;25.86;42.06;95266.13;4965115;28;7026;-72
2023/01/03 06:19:15;;;;;;;;;;;;;;;25.82;42.88;95279.38;4972764;28;9191;-71
2023/01/03 06:22:00;;;;;;;;;;;;;;;25.83;41.71;95280.91;4970930;28;8577;-71
2023/01/03 06:24:33;;;;;;;;;;;;;;;25.81;41.99;95290.91;4965704;28;7223;-71
2023/01/03 06:27:38;;;;;;;;;;;;;;;25.82;42.70;95287.66;4969957;28;7030;-71
2023/01/03 06:30:14;;;;;;;;;;;;;;;25.82;42.52;95290.41;4914944;29;8941;-71
2023/01/03 06:32:43;;;;;;;;;;;;;;;25.83;42.01;95291.91;4900216;29;7222;-72
2023/01/03 06:35:40;;;;;;;;;;;;;;;25.84;42.39;95295.41;4889874;29;7231;-72
2023/01/03 06:38:08;;;;;;;;;;;;;;;25.83;41.85;95294.69;4911810;29;9272;-71
2023/01/03 06:40:45;;;;;;;;;;;;;;;25.90;42.11;95304.50;4895428;29;7305;-71
2023/01/03 06:43:11;;;;;;;;;;;;;;;25.88;42.62;95302.22;4906348;29;7087;-71
2023/01/03 06:54:36;;;;;;;;;;;;;;;25.89;41.84;95303.72;4914034;29;7252;-72
2023/01/03 06:57:03;;;;;;;;;;;;;;;25.91;42.50;95306.75;4912761;29;7214;-72
2023/01/03 06:59:43;;;;;;;;;;;;;;;25.87;42.04;95303.47;4907214;29;7105;-72
2023/01/03 07:02:18;;;;;;;;;;;;;;;25.88;42.44;95307.00;4904667;29;7826;-72
2023/01/03 07:04:46;;;;;;;;;;;;;;;25.90;41.84;95310.75;4949716;28;7848;-72
2023/01/03 07:07:25;;;;;;;;;;;;;;;25.87;41.85;95303.47;4981779;28;7259;-71
2023/01/03 07:09:51;;;;;;;;;;;;;;;25.87;42.16;95300.72;4970782;28;7606;-71
2023/01/03 07:15:04;;;;;;;;;;;;;;;25.88;42.11;95307.72;4971215;28;7260;-71
2023/01/03 07:17:30;;;;;;;;;;;;;;;25.89;42.15;95303.72;4979403;28;7253;-71
2023/01/03 07:20:03;;;;;;;;;;;;;;;25.91;41.79;95309.50;4981480;28;7055;-71
2023/01/03 07:22:51;;;;;;;;;;;;;;;25.92;42.02;95319.31;4970782;28;7835;-71
2023/01/03 07:25:17;;;;;;;;;;;;;;;25.90;42.73;95332.06;4962936;28;7274;-70
2023/01/03 07:28:04;;;;;;;;;;;;;;;25.87;42.40;95336.53;4969769;28;8694;-70
2023/01/03 07:30:43;;;;;;;;;;;;;;;25.88;42.69;95335.28;4985982;28;7107;-71
2023/01/03 07:33:39;;;;;;;;;;;;;;;25.89;42.44;95334.06;4982486;28;7073;-71
2023/01/03 07:36:38;;;;;;;;;;;;;;;25.87;42.10;95336.53;4897369;29;9112;-71
2023/01/03 07:39:20;;;;;;;;;;;;;;;25.88;42.72;95334.56;4906294;29;9083;-71
2023/01/03 07:45:14;;;;;;;;;;;;;;;25.88;42.21;95338.03;4907833;29;7077;-72
2023/01/03 07:47:48;;;;;;;;;;;;;;;25.86;42.70;95335.03;4859624;29;9145;-72
2023/01/03 07:50:29;;;;;;;;;;;;;;;25.86;42.04;95335.03;4836595;29;9311;-72
2023/01/03 07:53:07;;;;;;;;;;;;;;;25.86;42.15;95331.53;4838683;29;7362;-72
2023/01/03 07:55:46;;;;;;;;;;;;;;;25.86;42.05;95337.78;4829884;29;9329;-72
2023/01/03 07:58:27;;;;;;;;;;;;;;;25.85;42.85;95346.53;4839812;29;7586;-72
2023/01/03 08:01:14;;;;;;;;;;;;;;;25.85;42.71;95341.78;4841924;29;7210;-72
2023/01/03 08:03:59;;;;;;;;;;;;;;;25.86;42.99;95356.34;4838582;29;7041;-72
2023/01/03 08:06:43;;;;;;;;;;;;;;;25.85;42.75;95352.81;4841997;29;9008;-72
2023/01/03 08:14:49;;;;;;;;;;;;;;;25.84;42.35;95345.03;4913625;29;7535;-72
2023/01/03 08:17:17;;;;;;;;;;;;;;;25.83;42.48;95355.31;4913233;29;7275;-72
2023/01/03 08:19:44;;;;;;;;;;;;;;;25.83;42.12;95360.81;4871945;29;9128;-72
2023/01/03 08:22:09;;;;;;;;;;;;;;;25.84;42.68;95367.81;4890903;29;7891;-72
2023/01/03 08:24:35;;;;;;;;;;;;;;;25.83;42.24;95366.34;4951825;28;9035;-72
2023/01/03 08:27:03;;;;;;;;;;;;;;;25.83;42.62;95360.06;4969467;28;7099;-72
2023/01/03 08:29:34;;;;;;;;;;;;;;;25.83;42.51;95371.84;4969246;28;8326;-72
2023/01/03 08:32:01;;;;;;;;;;;;;;;25.85;42.25;95374.09;4975440;28;9607;-72
2023/01/03 08:34:36;;;;;;;;;;;;;;;25.83;42.46;95374.59;4966251;28;7257;-72
2023/01/03 08:37:13;;;;;;;;;;;;;;;25.85;42.18;95374.88;4968085;28;7703;-72
2023/01/03 08:40:03;;;;;;;;;;;;;;;25.88;42.16;95373.13;4980633;28;7277;-72
2023/01/03 08:42:31;;;;;;;;;;;;;;;25.85;42.15;95374.88;4978027;28;8711;-72
2023/01/03 08:45:03;;;;;;;;;;;;;;;25.83;42.88;95385.63;4984447;28;7041;-72
2023/01/03 08:47:32;;;;;;;;;;;;;;;25.84;43.16;95386.34;4956473;28;7252;-72
2023/01/03 08:50:01;;;;;;;;;;;;;;;25.85;43.21;95393.41;4984799;28;6860;-72
2023/01/03 08:52:27;;;;;;;;;;;;;;;25.85;42.28;95385.88;4955202;28;7018;-72
2023/01/03 08:54:54;;;;;;;;;;;;;;;25.87;42.34;95388.91;4971849;28;7343;-72
2023/01/03 08:57:20;;;;;;;;;;;;;;;25.85;42.56;95387.88;4987685;28;8689;-72
2023/01/03 08:59:48;;;;;;;;;;;;;;;25.84;42.29;95394.63;4977443;28;8926;-71
2023/01/03 09:02:15;;;;;;;;;;;;;;;25.83;42.96;95396.66;4981504;28;7298;-70
2023/01/03 09:04:46;;;;;;;;;;;;;;;25.81;42.72;95395.63;4968170;28;7022;-70
2023/01/03 09:07:13;;;;;;;;;;;;;;;25.83;42.64;95404.16;4969898;28;9281;-70
2023/01/03 09:09:39;;;;;;;;;;;;;;;25.83;42.87;95404.91;4965180;28;9378;-70
2023/01/03 09:12:05;;;;;;;;;;;;;;;25.84;42.96;95414.69;4966920;28;7492;-71
2023/01/03 09:14:30;;;;;;;;;;;;;;;25.84;42.64;95409.16;4953966;28;9388;-71
2023/01/03 09:16:59;;;;;;;;;;;;;;;25.85;42.63;95405.19;4965258;28;7084;-71
2023/01/03 09:19:24;;;;;;;;;;;;;;;25.86;42.67;95414.22;4959620;28;7068;-72
2023/01/03 09:21:50;;;;;;;;;;;;;;;25.83;42.96;95415.94;4966218;28;7633;-71
2023/01/03 09:24:23;;;;;;;;;;;;;;;25.87;42.42;95416.47;4982269;28;7251;-73
2023/01/03 09:27:05;;;;;;;;;;;;;;;25.88;42.18;95420.72;4985067;28;7269;-72
2023/01/03 09:30:07;;;;;;;;;;;;;;;25.88;42.14;95426.25;4972164;28;7034;-72
2023/01/03 09:32:42;;;;;;;;;;;;;;;25.91;42.24;95428.03;4927443;29;7271;-72
2023/01/03 09:35:10;;;;;;;;;;;;;;;25.94;42.73;95434.56;4930946;29;7023;-72
2023/01/03 09:37:36;;;;;;;;;;;;;;;25.91;42.11;95433.53;4909048;29;10117;-72
2023/01/03 09:40:06;;;;;;;;;;;;;;;25.92;42.74;95428.78;4926283;29;9499;-72
2023/01/03 09:45:33;;;;;;;;;;;;;;;25.91;42.40;95427.25;4926387;29;7477;-72
2023/01/03 09:48:19;;;;;;;;;;;;;;;25.88;42.96;95429.00;4909619;29;7266;-73
2023/01/03 09:50:54;;;;;;;;;;;;;;;25.88;42.73;95431.00;4931874;29;7291;-72
2023/01/03 10:05:39;;;;;;;;;;;;;;;25.88;42.17;95431.00;4924679;29;6870;-72
2023/01/03 10:08:11;;;;;;;;;;;;;;;25.89;42.77;95429.75;4961945;28;9290;-72
2023/01/03 10:11:09;;;;;;;;;;;;;;;25.86;42.34;95420.47;4971865;28;7188;-72
2023/01/03 10:14:11;;;;;;;;;;;;;;;25.88;42.30;95422.75;4903028;29;7047;-72
2023/01/03 10:16:46;;;;;;;;;;;;;;;25.86;42.43;95425.97;4904552;29;7451;-72
2023/01/03 10:19:12;;;;;;;;;;;;;;;25.88;42.26;95426.25;4897519;29;8693;-72
2023/01/03 10:21:56;;;;;;;;;;;;;;;25.88;42.22;95420.72;4898662;29;7038;-73
2023/01/03 10:28:39;;;;;;;;;;;;;;;25.88;42.56;95417.97;4897902;29;9076;-73
2023/01/03 10:31:49;;;;;;;;;;;;;;;25.89;41.87;95422.25;4893600;29;7133;-73
2023/01/03 10:34:15;;;;;;;;;;;;;;;25.90;42.06;95404.44;4909694;29;6861;-72
2023/01/03 10:37:00;;;;;;;;;;;;;;;25.89;42.92;95411.22;4908284;29;9277;-72
2023/01/03 10:39:31;;;;;;;;;;;;;;;25.90;42.91;95415.47;4898739;29;9026;-73
2023/01/03 10:42:17;;;;;;;;;;;;;;;25.87;42.32;95404.69;4896606;29;9366;-74
2023/01/03 10:44:58;;;;;;;;;;;;;;;25.90;42.60;95412.00;4880370;29;7033;-73
2023/01/03 10:48:02;;;;;;;;;;;;;;;25.90;42.22;95415.47;4904918;29;7242;-73
2023/01/03 10:50:41;;;;;;;;;;;;;;;25.89;43.13;95404.94;4935662;28;7617;-73
2023/01/03 10:53:22;;;;;;;;;;;;;;;25.88;42.59;95408.97;4962799;28;7046;-73
2023/01/03 10:55:52;;;;;;;;;;;;;;;25.89;42.41;95411.22;4970490;28;7027;-72
2023/01/03 10:58:29;;;;;;;;;;;;;;;25.87;42.65;95410.97;4966850;28;7058;-72
2023/01/03 11:01:31;;;;;;;;;;;;;;;25.87;43.05;95404.69;4956709;28;7046;-72
2023/01/03 11:04:18;;;;;;;;;;;;;;;25.90;42.55;95409.97;4972469;28;7499;-72
2023/01/03 11:07:05;;;;;;;;;;;;;;;25.91;42.01;95400.47;4969786;28;7288;-73
2023/01/03 11:09:55;;;;;;;;;;;;;;;25.89;42.34;95404.94;4958619;28;7041;-72
2023/01/03 11:12:28;;;;;;;;;;;;;;;25.88;43.14;95406.94;4969594;28;8991;-72
2023/01/03 11:14:56;;;;;;;;;;;;;;;25.90;43.24;95412.72;4985318;28;8674;-72
2023/01/03 11:17:31;;;;;;;;;;;;;;;25.88;43.81;95412.47;4972336;28;7088;-73
2023/01/03 11:20:45;;;;;;;;;;;;;;;25.91;42.98;95410.72;4974240;28;8707;-72
2023/01/03 11:23:38;;;;;;;;;;;;;;;25.92;43.51;95402.00;4913141;29;8491;-72
2023/01/03 11:26:16;;;;;;;;;;;;;;;25.93;43.29;95397.97;4899881;29;7041;-72
2023/01/03 11:29:22;;;;;;;;;;;;;;;25.93;42.79;95397.97;4910447;29;9171;-71
2023/01/03 11:32:01;;;;;;;;;;;;;;;25.92;43.60;95393.72;4897762;29;7624;-71
2023/01/03 11:35:11;;;;;;;;;;;;;;;25.90;43.64;95392.69;4915275;29;7422;-69
2023/01/03 11:38:03;;;;;;;;;;;;;;;25.91;43.75;95394.94;4852423;29;9234;-69
2023/01/03 11:41:12;;;;;;;;;;;;;;;25.91;42.63;95394.19;4811995;29;7308;-69
2023/01/03 11:44:26;;;;;;;;;;;;;;;25.91;43.35;95400.47;4805554;29;7268;-69
2023/01/03 11:47:32;;;;;;;;;;;;;;;25.90;43.77;95393.44;4800795;29;7029;-69
2023/01/03 11:50:28;;;;;;;;;;;;;;;25.91;44.50;95394.19;4819817;29;7193;-71
2023/01/03 11:53:36;;;;;;;;;;;;;;;25.94;43.36;95394.00;4815367;29;9224;-69
2023/01/03 11:56:29;;;;;;;;;;;;;;;25.93;43.37;95388.94;4724052;30;7114;-69
2023/01/03 11:59:48;;;;;;;;;;;;;;;25.93;43.17;95386.94;4739343;30;7311;-69
2023/01/03 12:02:40;;;;;;;;;;;;;;;25.93;43.53;95384.19;4749244;30;6862;-69
2023/01/03 12:05:15;;;;;;;;;;;;;;;25.93;43.66;95386.19;4752680;30;7155;-69
2023/01/03 12:08:15;;;;;;;;;;;;;;;25.93;43.30;95381.44;4755476;29;8130;-71
2023/01/03 12:10:55;;;;;;;;;;;;;;;25.95;44.11;95394.72;4785935;29;8983;-70
2023/01/03 12:13:36;;;;;;;;;;;;;;;25.95;43.12;95389.97;4804545;29;9423;-70
2023/01/03 12:16:25;;;;;;;;;;;;;;;25.93;43.66;95383.44;4783481;29;9242;-70
2023/01/03 12:19:00;;;;;;;;;;;;;;;25.92;43.66;95390.97;4873118;29;7102;-70
2023/01/03 12:21:36;;;;;;;;;;;;;;;25.90;42.91;95382.41;4892445;29;8779;-70
2023/01/03 12:24:17;;;;;;;;;;;;;;;25.90;43.93;95384.44;4889946;29;9103;-69
2023/01/03 12:27:30;;;;;;;;;;;;;;;25.91;43.47;95378.41;4869047;29;9383;-71
2023/01/03 12:30:26;;;;;;;;;;;;;;;25.91;43.10;95378.41;4873165;29;7350;-71
2023/01/03 12:33:21;;;;;;;;;;;;;;;25.91;43.27;95381.16;4942657;28;9072;-71
2023/01/03 12:36:22;;;;;;;;;;;;;;;25.93;44.01;95377.91;4952075;28;7127;-72
2023/01/03 12:39:09;;;;;;;;;;;;;;;25.94;43.92;95388.47;4971483;28;7201;-72
2023/01/03 12:41:47;;;;;;;;;;;;;;;25.92;43.07;95385.44;4954844;28;9523;-72
2023/01/03 12:44:31;;;;;;;;;;;;;;;25.94;44.00;95385.72;4964669;28;8750;-71
2023/01/03 12:46:58;;;;;;;;;;;;;;;25.95;43.38;95389.97;4979085;28;7238;-71
2023/01/03 12:49:53;;;;;;;;;;;;;;;25.97;44.05;95386.72;4967339;28;9053;-71
2023/01/03 12:52:24;;;;;;;;;;;;;;;25.97;44.05;95386.72;4957697;28;7443;-71
2023/01/03 12:55:07;;;;;;;;;;;;;;;26.00;43.76;95388.50;4968998;28;8746;-71
2023/01/03 12:57:59;;;;;;;;;;;;;;;25.99;43.67;95387.00;4965581;28;8934;-71
2023/01/03 13:00:56;;;;;;;;;;;;;;;26.01;44.15;95388.00;4965859;28;7324;-72
2023/01/03 13:03:51;;;;;;;;;;;;;;;26.00;44.16;95381.00;4979468;28;7474;-72
2023/01/03 13:06:17;;;;;;;;;;;;;;;25.99;43.53;95390.50;4965690;28;7068;-72
2023/01/03 13:08:50;;;;;;;;;;;;;;;25.98;43.97;95383.50;4952411;28;9057;-72
2023/01/03 13:11:24;;;;;;;;;;;;;;;25.99;44.27;95379.47;4963875;28;8692;-72
2023/01/03 13:14:01;;;;;;;;;;;;;;;26.00;44.08;95380.22;4971711;28;9159;-72
2023/01/03 13:16:33;;;;;;;;;;;;;;;25.99;44.03;95384.25;4988290;28;9225;-72
2023/01/03 13:19:31;;;;;;;;;;;;;;;25.94;44.04;95377.44;4960034;28;7245;-72
2023/01/03 13:22:31;;;;;;;;;;;;;;;25.97;44.70;95389.47;4965402;28;7114;-72
2023/01/03 13:25:26;;;;;;;;;;;;;;;25.98;44.20;95394.50;4961975;28;8586;-71
2023/01/03 13:28:20;;;;;;;;;;;;;;;26.00;43.89;95388.50;4963622;28;7257;-71
2023/01/03 13:31:07;;;;;;;;;;;;;;;26.00;44.49;95385.75;4968981;28;7306;-71
2023/01/03 13:33:55;;;;;;;;;;;;;;;26.01;44.38;95379.72;4967116;28;8893;-72
2023/01/03 13:36:24;;;;;;;;;;;;;;;26.02;44.27;95383.25;4967750;28;7388;-72
2023/01/03 13:38:59;;;;;;;;;;;;;;;26.01;44.23;95387.28;4965626;28;8467;-70
2023/01/03 13:41:43;;;;;;;;;;;;;;;26.01;44.80;95390.03;4973068;28;9133;-72
2023/01/03 13:44:24;;;;;;;;;;;;;;;26.00;44.73;95383.75;4977375;28;7195;-72
2023/01/03 13:46:51;;;;;;;;;;;;;;;25.99;44.08;95387.75;4978254;28;7238;-71
2023/01/03 13:49:47;;;;;;;;;;;;;;;25.98;43.72;95386.25;4973110;28;8866;-71
2023/01/03 13:52:58;;;;;;;;;;;;;;;25.95;44.14;95384.47;4932788;29;7038;-71
2023/01/03 13:55:37;;;;;;;;;;;;;;;25.97;43.23;95381.97;4918158;29;9052;-71
2023/01/03 13:58:48;;;;;;;;;;;;;;;25.98;43.70;95380.72;4914823;29;7207;-71
2023/01/03 14:01:39;;;;;;;;;;;;;;;25.96;43.10;95388.75;4928595;29;7049;-71
2023/01/03 14:04:36;;;;;;;;;;;;;;;25.96;42.83;95380.47;4917229;29;7907;-71
2023/01/03 14:07:50;;;;;;;;;;;;;;;25.96;42.99;95387.97;4932998;29;7293;-72
2023/01/03 14:10:32;;;;;;;;;;;;;;;25.94;43.33;95394.00;4912616;29;7010;-71
2023/01/03 14:13:30;;;;;;;;;;;;;;;25.96;43.17;95401.75;4932654;29;7207;-71
2023/01/03 14:16:13;;;;;;;;;;;;;;;25.95;43.49;95401.00;4927006;29;9555;-71
2023/01/03 14:19:17;;;;;;;;;;;;;;;25.94;43.52;95401.50;4925031;29;7116;-71
2023/01/03 14:22:40;;;;;;;;;;;;;;;25.95;42.73;95406.50;4925598;29;7022;-71
2023/01/03 14:25:27;;;;;;;;;;;;;;;25.91;43.45;95405.97;4931162;29;7299;-71
2023/01/03 14:27:55;;;;;;;;;;;;;;;25.94;43.18;95413.28;4929719;29;9062;-71
2023/01/03 14:30:30;;;;;;;;;;;;;;;25.94;42.65;95407.00;4968959;28;9045;-71
2023/01/03 14:32:57;;;;;;;;;;;;;;;25.94;43.40;95409.75;4965513;28;8685;-71
2023/01/03 14:35:37;;;;;;;;;;;;;;;25.94;43.75;95416.03;4971626;28;8579;-71
2023/01/03 14:38:23;;;;;;;;;;;;;;;25.93;43.20;95419.25;4970739;28;7079;-71
2023/01/03 14:40:51;;;;;;;;;;;;;;;25.96;43.35;95412.78;4971134;28;8905;-71
2023/01/03 14:43:48;;;;;;;;;;;;;;;25.95;43.41;95409.25;4978442;28;9074;-71
2023/01/03 14:46:16;;;;;;;;;;;;;;;25.95;43.26;95411.25;4974830;28;7507;-71
2023/01/03 14:48:46;;;;;;;;;;;;;;;25.96;42.85;95416.31;4968770;28;7296;-72
2023/01/03 14:51:14;;;;;;;;;;;;;;;25.97;42.99;95414.28;4971126;28;7168;-72
2023/01/03 14:53:42;;;;;;;;;;;;;;;25.97;43.06;95423.31;4979786;28;7273;-72
2023/01/03 14:56:09;;;;;;;;;;;;;;;25.96;42.67;95421.06;4965675;28;9420;-71
2023/01/03 14:58:46;;;;;;;;;;;;;;;25.95;43.05;95425.81;4971518;28;7620;-71
2023/01/03 15:01:18;;;;;;;;;;;;;;;25.94;43.34;95427.06;4967794;28;7111;-71
2023/01/03 15:03:48;;;;;;;;;;;;;;;25.95;42.65;95427.78;4974986;28;9002;-71
2023/01/03 15:06:59;;;;;;;;;;;;;;;25.94;43.59;95429.06;4976663;28;8990;-72
2023/01/03 15:09:26;;;;;;;;;;;;;;;25.94;42.45;95437.31;4922194;29;7034;-72
2023/01/03 15:11:55;;;;;;;;;;;;;;;25.96;42.91;95435.59;4925531;29;8162;-71
2023/01/03 15:14:29;;;;;;;;;;;;;;;25.96;42.69;95434.84;4921150;28;7126;-71